Desert Spring — V7XQ8 — position and weather

sailwx.info

Track history (hours):
 
Tides and Currents Weather Stations Pressure Air Temp Water Temp Dewpoint Dewpoint Depression Visibility Wind Speed Wind Dir Waves Ship Positions

Desert Spring

Last reported at 2016-Jul-27 11:33 UTC. Time now 2016-Jul-27 15:24 UTC.
Position N 43°16' E 034°15'.

Length 193 m; draft 11.9 m.

Type: Cargo ship. MMSI: 538004547.

Date/timePositionNaut miles runAvg speedWind from/ knotsBaromVisibWave heightAir tempDewpointWater temp
2016-Jul-27 11:33N 43°16' E 034°15'1111.3
2016-Jul-27 10:33N 43°20' E 034°29'1111.0
2016-Jul-27 09:33N 43°25' E 034°43'1110.9
2016-Jul-27 08:33N 43°31' E 034°56'1111.1
2016-Jul-27 07:33N 43°36' E 035°09'11611.2
2016-Jul-26 21:12N 44°29' E 037°33'711.3
2016-Jul-26 20:33N 44°32' E 037°42'10 9.8
2016-Jul-26 19:33N 44°40' E 037°50'1 0.6
2016-Jul-26 18:33N 44°40' E 037°51'0 0.0
2016-Jul-26 17:33N 44°40' E 037°51'0 0.0
2016-Jul-26 16:33N 44°40' E 037°51'0 0.1
2016-Jul-26 15:33N 44°40' E 037°51'0 0.1
2016-Jul-26 14:33N 44°41' E 037°51'0 0.1
2016-Jul-26 13:33N 44°41' E 037°51'0 0.0
2016-Jul-26 12:34N 44°41' E 037°51'1 1.5
2016-Jul-26 11:34N 44°42' E 037°50'3 2.7
2016-Jul-26 10:32N 44°44' E 037°47'0 0.0
2016-Jul-26 09:32N 44°44' E 037°47'0 0.0
2016-Jul-26 08:32N 44°44' E 037°47'0 0.0
2016-Jul-26 07:32N 44°44' E 037°47'0 0.0
2016-Jul-26 06:32N 44°44' E 037°47'0 0.0
2016-Jul-26 05:32N 44°44' E 037°47'0 0.0
2016-Jul-26 04:32N 44°44' E 037°47'0 0.0
2016-Jul-26 03:32N 44°44' E 037°47'0 0.0
2016-Jul-26 02:29N 44°44' E 037°47'0 0.0
2016-Jul-26 01:32N 44°44' E 037°47'0 0.0
2016-Jul-26 00:32N 44°44' E 037°47'0 0.0
2016-Jul-25 23:32N 44°44' E 037°47'0 0.0
2016-Jul-25 22:32N 44°44' E 037°47'0 0.0
2016-Jul-25 21:32N 44°44' E 037°47'0 0.0
2016-Jul-25 20:32N 44°44' E 037°47'0 0.0
2016-Jul-25 19:32N 44°44' E 037°47'0 0.0
2016-Jul-25 18:32N 44°44' E 037°47'0 0.0
2016-Jul-25 17:32N 44°44' E 037°47'0 0.0
2016-Jul-25 16:32N 44°44' E 037°47'0 0.0
2016-Jul-25 15:23N 44°44' E 037°47'0 0.0
2016-Jul-25 14:32N 44°44' E 037°47'0 0.0
2016-Jul-25 13:32N 44°44' E 037°47'0 0.0
2016-Jul-25 12:32N 44°44' E 037°47'0 0.0
2016-Jul-25 11:32N 44°44' E 037°47'0 0.0
2016-Jul-25 10:26N 44°44' E 037°47'0 0.0
2016-Jul-25 09:32N 44°44' E 037°47'0 0.0
2016-Jul-25 08:32N 44°44' E 037°47'0 0.0
2016-Jul-25 07:32N 44°44' E 037°47'0 0.0
2016-Jul-25 06:32N 44°44' E 037°47'0 0.0
2016-Jul-25 05:29N 44°44' E 037°47'0 0.0
2016-Jul-25 04:32N 44°44' E 037°47'0 0.0
2016-Jul-25 03:32N 44°44' E 037°47'0 0.0
2016-Jul-25 02:32N 44°44' E 037°47'0 0.0
2016-Jul-25 01:32N 44°44' E 037°47'0 0.0
2016-Jul-25 00:32N 44°44' E 037°47'0 0.0
2016-Jul-24 23:32N 44°44' E 037°47'0 0.0
2016-Jul-24 22:32N 44°44' E 037°47'0 0.0
2016-Jul-24 21:32N 44°44' E 037°47'0 0.0
2016-Jul-24 20:32N 44°44' E 037°47'0 0.0
2016-Jul-24 19:32N 44°44' E 037°47'0 0.0
2016-Jul-24 18:29N 44°44' E 037°47'0 0.0
2016-Jul-24 17:32N 44°44' E 037°47'0 0.0
2016-Jul-24 16:29N 44°44' E 037°47'0 0.0
2016-Jul-24 15:32N 44°44' E 037°47'0 0.0
2016-Jul-24 14:26N 44°44' E 037°47'0 0.0
2016-Jul-24 13:32N 44°44' E 037°47'0 0.0
2016-Jul-24 12:32N 44°44' E 037°47'0 0.2
2016-Jul-24 11:33N 44°44' E 037°47'3 3.4
2016-Jul-24 10:33N 44°41' E 037°51'0 0.1
2016-Jul-24 09:33N 44°41' E 037°51'0 0.0
2016-Jul-24 08:33N 44°41' E 037°51'0 0.0
2016-Jul-24 07:33N 44°41' E 037°51'0 0.1
2016-Jul-24 06:33N 44°41' E 037°51'0 0.2
2016-Jul-24 05:33N 44°41' E 037°51'0 0.0
2016-Jul-24 04:33N 44°41' E 037°51'0 0.0
2016-Jul-24 03:33N 44°41' E 037°51'0 0.0
2016-Jul-24 02:33N 44°41' E 037°51'0 0.1
2016-Jul-24 01:33N 44°41' E 037°51'0 0.1
2016-Jul-24 00:33N 44°41' E 037°51'0 0.0
2016-Jul-23 23:33N 44°41' E 037°51'0 0.0
2016-Jul-23 22:33N 44°41' E 037°51'0 0.0
2016-Jul-23 21:33N 44°41' E 037°51'0 0.0
2016-Jul-23 20:33N 44°41' E 037°51'0 0.1
2016-Jul-23 19:33N 44°41' E 037°51'0 0.0
2016-Jul-23 18:33N 44°41' E 037°51'0 0.0
2016-Jul-23 17:33N 44°41' E 037°51'0 0.0
2016-Jul-23 16:33N 44°41' E 037°51'0 0.0
2016-Jul-23 15:33N 44°41' E 037°51'0 0.0
2016-Jul-23 14:33N 44°41' E 037°51'0 0.0
2016-Jul-23 13:33N 44°41' E 037°51'0 0.0
2016-Jul-23 12:33N 44°41' E 037°51'0 0.0
2016-Jul-23 11:33N 44°41' E 037°51'0 0.0
2016-Jul-23 10:33N 44°41' E 037°51'0 0.0
2016-Jul-23 09:33N 44°41' E 037°51'0 0.0
2016-Jul-23 08:34N 44°41' E 037°51'3 2.6
2016-Jul-23 07:33N 44°39' E 037°51'8 8.5
2016-Jul-23 06:34N 44°31' E 037°49'  
2016-Jul-18 14:33N 43°38' E 036°12'4 1.9
2016-Jul-18 12:33N 43°36' E 036°07'7 1.0
2016-Jul-18 05:33N 43°31' E 036°00'0 0.2
2016-Jul-18 04:12N 43°30' E 036°00'0 0.2
2016-Jul-18 03:09N 43°30' E 036°00'0 0.3
2016-Jul-18 01:27N 43°30' E 035°59'0 0.4
2016-Jul-18 00:33N 43°30' E 035°59'1 0.6
2016-Jul-17 22:33N 43°30' E 035°58'1 0.7
2016-Jul-17 21:33N 43°29' E 035°57'1 0.7
2016-Jul-17 20:33N 43°29' E 035°56'2 0.2
2016-Jul-17 12:24N 43°28' E 035°58'  
Track history (hours):
 
Tides and Currents Weather Stations Pressure Air Temp Water Temp Dewpoint Dewpoint Depression Visibility Wind Speed Wind Dir Waves Ship Positions

Desert Spring

Last reported at 2016-Jul-27 11:33 UTC. Time now 2016-Jul-27 15:24 UTC.
Position N 43°16' E 034°15'.

Length 193 m; draft 11.9 m.

Type: Cargo ship. MMSI: 538004547.

Date/timePositionNaut miles runAvg speedWind from/ knotsBaromVisibWave heightAir tempDewpointWater temp
2016-Jul-27 11:33N 43°16' E 034°15'1111.3
2016-Jul-27 10:33N 43°20' E 034°29'1111.0
2016-Jul-27 09:33N 43°25' E 034°43'1110.9
2016-Jul-27 08:33N 43°31' E 034°56'1111.1
2016-Jul-27 07:33N 43°36' E 035°09'11611.2
2016-Jul-26 21:12N 44°29' E 037°33'711.3
2016-Jul-26 20:33N 44°32' E 037°42'10 9.8
2016-Jul-26 19:33N 44°40' E 037°50'1 0.6
2016-Jul-26 18:33N 44°40' E 037°51'0 0.0
2016-Jul-26 17:33N 44°40' E 037°51'0 0.0
2016-Jul-26 16:33N 44°40' E 037°51'0 0.1
2016-Jul-26 15:33N 44°40' E 037°51'0 0.1
2016-Jul-26 14:33N 44°41' E 037°51'0 0.1
2016-Jul-26 13:33N 44°41' E 037°51'0 0.0
2016-Jul-26 12:34N 44°41' E 037°51'1 1.5
2016-Jul-26 11:34N 44°42' E 037°50'3 2.7
2016-Jul-26 10:32N 44°44' E 037°47'0 0.0
2016-Jul-26 09:32N 44°44' E 037°47'0 0.0
2016-Jul-26 08:32N 44°44' E 037°47'0 0.0
2016-Jul-26 07:32N 44°44' E 037°47'0 0.0
2016-Jul-26 06:32N 44°44' E 037°47'0 0.0
2016-Jul-26 05:32N 44°44' E 037°47'0 0.0
2016-Jul-26 04:32N 44°44' E 037°47'0 0.0
2016-Jul-26 03:32N 44°44' E 037°47'0 0.0
2016-Jul-26 02:29N 44°44' E 037°47'0 0.0
2016-Jul-26 01:32N 44°44' E 037°47'0 0.0
2016-Jul-26 00:32N 44°44' E 037°47'0 0.0
2016-Jul-25 23:32N 44°44' E 037°47'0 0.0
2016-Jul-25 22:32N 44°44' E 037°47'0 0.0
2016-Jul-25 21:32N 44°44' E 037°47'0 0.0
2016-Jul-25 20:32N 44°44' E 037°47'0 0.0
2016-Jul-25 19:32N 44°44' E 037°47'0 0.0
2016-Jul-25 18:32N 44°44' E 037°47'0 0.0
2016-Jul-25 17:32N 44°44' E 037°47'0 0.0
2016-Jul-25 16:32N 44°44' E 037°47'0 0.0
2016-Jul-25 15:23N 44°44' E 037°47'0 0.0
2016-Jul-25 14:32N 44°44' E 037°47'0 0.0
2016-Jul-25 13:32N 44°44' E 037°47'0 0.0
2016-Jul-25 12:32N 44°44' E 037°47'0 0.0
2016-Jul-25 11:32N 44°44' E 037°47'0 0.0
2016-Jul-25 10:26N 44°44' E 037°47'0 0.0
2016-Jul-25 09:32N 44°44' E 037°47'0 0.0
2016-Jul-25 08:32N 44°44' E 037°47'0 0.0
2016-Jul-25 07:32N 44°44' E 037°47'0 0.0
2016-Jul-25 06:32N 44°44' E 037°47'0 0.0
2016-Jul-25 05:29N 44°44' E 037°47'0 0.0
2016-Jul-25 04:32N 44°44' E 037°47'0 0.0
2016-Jul-25 03:32N 44°44' E 037°47'0 0.0
2016-Jul-25 02:32N 44°44' E 037°47'0 0.0
2016-Jul-25 01:32N 44°44' E 037°47'0 0.0
2016-Jul-25 00:32N 44°44' E 037°47'0 0.0
2016-Jul-24 23:32N 44°44' E 037°47'0 0.0
2016-Jul-24 22:32N 44°44' E 037°47'0 0.0
2016-Jul-24 21:32N 44°44' E 037°47'0 0.0
2016-Jul-24 20:32N 44°44' E 037°47'0 0.0
2016-Jul-24 19:32N 44°44' E 037°47'0 0.0
2016-Jul-24 18:29N 44°44' E 037°47'0 0.0
2016-Jul-24 17:32N 44°44' E 037°47'0 0.0
2016-Jul-24 16:29N 44°44' E 037°47'0 0.0
2016-Jul-24 15:32N 44°44' E 037°47'0 0.0
2016-Jul-24 14:26N 44°44' E 037°47'0 0.0
2016-Jul-24 13:32N 44°44' E 037°47'0 0.0
2016-Jul-24 12:32N 44°44' E 037°47'0 0.2
2016-Jul-24 11:33N 44°44' E 037°47'3 3.4
2016-Jul-24 10:33N 44°41' E 037°51'0 0.1
2016-Jul-24 09:33N 44°41' E 037°51'0 0.0
2016-Jul-24 08:33N 44°41' E 037°51'0 0.0
2016-Jul-24 07:33N 44°41' E 037°51'0 0.1
2016-Jul-24 06:33N 44°41' E 037°51'0 0.2
2016-Jul-24 05:33N 44°41' E 037°51'0 0.0
2016-Jul-24 04:33N 44°41' E 037°51'0 0.0
2016-Jul-24 03:33N 44°41' E 037°51'0 0.0
2016-Jul-24 02:33N 44°41' E 037°51'0 0.1
2016-Jul-24 01:33N 44°41' E 037°51'0 0.1
2016-Jul-24 00:33N 44°41' E 037°51'0 0.0
2016-Jul-23 23:33N 44°41' E 037°51'0 0.0
2016-Jul-23 22:33N 44°41' E 037°51'0 0.0
2016-Jul-23 21:33N 44°41' E 037°51'0 0.0
2016-Jul-23 20:33N 44°41' E 037°51'0 0.1
2016-Jul-23 19:33N 44°41' E 037°51'0 0.0
2016-Jul-23 18:33N 44°41' E 037°51'0 0.0
2016-Jul-23 17:33N 44°41' E 037°51'0 0.0
2016-Jul-23 16:33N 44°41' E 037°51'0 0.0
2016-Jul-23 15:33N 44°41' E 037°51'0 0.0
2016-Jul-23 14:33N 44°41' E 037°51'0 0.0
2016-Jul-23 13:33N 44°41' E 037°51'0 0.0
2016-Jul-23 12:33N 44°41' E 037°51'0 0.0
2016-Jul-23 11:33N 44°41' E 037°51'0 0.0
2016-Jul-23 10:33N 44°41' E 037°51'0 0.0
2016-Jul-23 09:33N 44°41' E 037°51'0 0.0
2016-Jul-23 08:34N 44°41' E 037°51'3 2.6
2016-Jul-23 07:33N 44°39' E 037°51'8 8.5
2016-Jul-23 06:34N 44°31' E 037°49'  
2016-Jul-18 14:33N 43°38' E 036°12'4 1.9
2016-Jul-18 12:33N 43°36' E 036°07'7 1.0
2016-Jul-18 05:33N 43°31' E 036°00'0 0.2
2016-Jul-18 04:12N 43°30' E 036°00'0 0.2
2016-Jul-18 03:09N 43°30' E 036°00'0 0.3
2016-Jul-18 01:27N 43°30' E 035°59'0 0.4
2016-Jul-18 00:33N 43°30' E 035°59'1 0.6
2016-Jul-17 22:33N 43°30' E 035°58'1 0.7
2016-Jul-17 21:33N 43°29' E 035°57'1 0.7
2016-Jul-17 20:33N 43°29' E 035°56'2 0.2
2016-Jul-17 12:24N 43°28' E 035°58'  

Dump ship's entire track history